Airfield :
LOGIN :

Register | Disclaimer

   EN    FR    IT 

 










Legend :    VFR   Marginal VFR   IFR   Intensive IFR   Very Intensive IFR
Visi :
Ceiling :
>= 8 km
>= 3000ft
5 to 8 km
1000 to 3000 ft
1500m to 5 km
500 to 1000 ft
800 to 1500m
200 to 500 ft
< 800m
< 200 ft
Symbols :   Thunderstorms  Fog  Heavy snow  Heavy precipitations  Wind > 20 kt
SIGMETs :     Misc.  Thunderstorms  Icing  Turbulence  Mountain Waves  Volcanic Ashes






- Airport Elevation : 82 ft
- IATA code : QIE


LFMI - Istres

CURRENT METAR :
  • 121330Z AUTO 32022KT CAVOK 13/03 Q1004 BECMG 33020G30KT

EXPIRED METARs :
  • 121300Z AUTO 32022KT CAVOK 13/02 Q1004 BECMG 33020G30KT
  • 121230Z AUTO 32024KT CAVOK 13/02 Q1004 BECMG 33020G30KT
  • 121200Z AUTO 32028KT CAVOK 13/01 Q1005 TEMPO 32030G40KT
  • 121130Z AUTO 32026KT CAVOK 12/02 Q1005 TEMPO 32030G40KT
  • 121100Z AUTO 32026KT CAVOK 12/01 Q1006 TEMPO 32030G40KT

TAF TAF LFMI
Valid from the 12 at 09:00 until the 13 at 09:00 UTC


120800Z 1209/1309 33028KT CAVOK
TEMPO 1209/1214 32030G40KT
BECMG 1214/1216 33020G30KT
BECMG 1218/1220 33020KT
BECMG 1222/1224 31015KT
BECMG 1301/1303 30010KT
BECMG 1306/1308 32020KT
TEMPO 1308/1309 32020G30KT



MET'MAP, your aeronautical weather chart ! - Copyright ORBIFLY December 2007 - Disclaimer

ORBIFLY MET'MAP TEAM :

Programming & Development : Alexandra Zaïnal
Concept & Development : Baudouin d'Aumeries
Co-Development & Prog : Marc-Olivier Méhu
Technical & hardware support : Manuel Goepfert

Contact : metmap@orbifly.com




SOURCES & CREDITS :

   NOAA